createdAt,value
2018-10-05T00:09:59.777Z,46.19
2018-10-05T00:20:02.899Z,46.12
2018-10-05T00:30:06.109Z,46.45
2018-10-05T00:40:09.163Z,46.51
2018-10-05T00:50:13.665Z,46.45
2018-10-05T01:00:16.793Z,46.34
2018-10-05T01:10:20.548Z,46.69
2018-10-05T01:20:24.363Z,46.58
2018-10-05T01:30:27.562Z,46.73
2018-10-05T01:40:31.439Z,46.62
2018-10-05T01:50:34.660Z,46.72
2018-10-05T02:00:38.084Z,47.30
2018-10-05T02:10:41.787Z,47.41
2018-10-05T02:20:46.059Z,46.79
2018-10-05T02:30:49.264Z,46.81
2018-10-05T02:40:53.403Z,47.38
2018-10-05T02:50:56.626Z,47.25
2018-10-05T03:01:11.396Z,46.83
2018-10-05T03:11:14.456Z,46.63
2018-10-05T03:21:17.608Z,47.36
2018-10-05T03:31:20.720Z,47.07
2018-10-05T03:41:23.891Z,47.14
2018-10-05T03:51:27.075Z,46.75
2018-10-05T04:01:30.367Z,47.26
2018-10-05T04:11:33.721Z,47.38
2018-10-05T04:21:37.016Z,46.56
2018-10-05T04:31:40.085Z,47.15
2018-10-05T04:41:43.547Z,46.02
2018-10-05T04:51:47.125Z,46.87
2018-10-05T05:01:50.319Z,46.92
2018-10-05T05:11:53.411Z,46.33
2018-10-05T05:21:56.512Z,46.72
2018-10-05T05:32:00.343Z,46.04
2018-10-05T05:42:03.454Z,47.79
2018-10-05T05:52:06.779Z,47.34
2018-10-05T06:02:09.916Z,46.66
2018-10-05T06:22:22.600Z,47.90
2018-10-05T06:32:25.616Z,48.23
2018-10-05T06:42:29.241Z,48.34
2018-10-05T06:52:32.284Z,49.32
2018-10-05T07:02:35.612Z,47.67
2018-10-05T07:12:38.763Z,47.67
2018-10-05T07:22:43.383Z,47.64
2018-10-05T07:32:47.091Z,47.64
2018-10-05T07:42:52.180Z,47.34
2018-10-05T07:52:55.280Z,46.75
2018-10-05T08:02:58.423Z,48.76
2018-10-05T08:13:02.046Z,44.61
2018-10-05T08:23:05.139Z,43.55
2018-10-05T08:33:08.307Z,43.05
2018-10-05T08:43:11.892Z,42.16
2018-10-05T08:53:16.460Z,44.33
2018-10-05T09:03:19.970Z,46.10
2018-10-05T09:13:23.011Z,45.58
2018-10-05T09:23:27.764Z,45.67
2018-10-05T09:33:30.836Z,45.85
2018-10-05T09:43:33.903Z,45.16
2018-10-05T09:53:38.158Z,45.07
2018-10-05T10:03:41.242Z,44.38
2018-10-05T10:13:44.360Z,44.38
2018-10-05T10:23:47.465Z,45.84
2018-10-05T10:33:51.803Z,45.58
2018-10-05T10:43:55.691Z,45.39
2018-10-05T10:53:58.689Z,46.74
2018-10-05T11:04:01.933Z,46.58
2018-10-05T11:14:05.082Z,45.87
2018-10-05T11:24:08.219Z,44.73
2018-10-05T11:34:11.314Z,45.28
2018-10-05T11:44:14.714Z,45.10
2018-10-05T11:54:17.793Z,44.20
2018-10-05T12:04:21.175Z,44.33
2018-10-05T12:14:24.303Z,44.10
2018-10-05T12:24:27.457Z,44.14
2018-10-05T12:34:30.599Z,43.92
2018-10-05T12:44:33.842Z,44.50
2018-10-05T12:54:36.872Z,44.44
2018-10-05T13:04:39.864Z,44.37
2018-10-05T13:14:42.954Z,43.91
2018-10-05T13:24:46.112Z,43.54
2018-10-05T13:34:49.292Z,43.83
2018-10-05T13:45:01.411Z,46.68
2018-10-05T13:55:04.575Z,46.78
2018-10-05T14:05:07.638Z,46.74
2018-10-05T14:15:10.751Z,47.67
2018-10-05T14:25:13.982Z,47.28
2018-10-05T14:35:17.096Z,48.89
2018-10-05T14:45:20.187Z,48.89
2018-10-05T14:55:23.225Z,48.88
2018-10-05T15:05:26.507Z,47.84
2018-10-05T15:15:29.611Z,48.22
2018-10-05T15:25:32.790Z,47.48
2018-10-05T15:35:36.101Z,47.62
2018-10-05T15:45:39.280Z,47.38
2018-10-05T15:55:42.334Z,48.01
2018-10-05T16:05:45.685Z,47.61
2018-10-05T16:15:48.783Z,48.05
2018-10-05T16:25:51.972Z,48.00
2018-10-05T16:35:55.191Z,45.49
2018-10-05T16:45:58.248Z,45.62
2018-10-05T16:56:01.500Z,45.91
2018-10-05T17:06:04.476Z,45.43
2018-10-05T17:16:07.684Z,44.84
2018-10-05T17:26:10.756Z,44.37
2018-10-05T17:36:13.943Z,45.11
2018-10-05T17:46:17.181Z,43.90
2018-10-05T17:56:20.200Z,43.72
2018-10-05T18:06:23.353Z,44.14
2018-10-05T18:16:26.488Z,44.34
2018-10-05T18:26:29.735Z,43.80
2018-10-05T18:36:32.927Z,44.61
2018-10-05T18:46:36.117Z,44.09
2018-10-05T18:56:50.497Z,44.41
2018-10-05T19:06:53.597Z,47.29
2018-10-05T19:16:56.962Z,46.82
2018-10-05T19:27:00.100Z,46.98
2018-10-05T19:37:03.193Z,46.66
2018-10-05T19:47:07.495Z,47.08
2018-10-05T19:57:10.669Z,46.76
2018-10-05T20:07:13.771Z,47.23
2018-10-05T20:17:17.108Z,46.56
2018-10-05T20:27:20.331Z,46.31
2018-10-05T20:37:23.607Z,46.23
2018-10-05T20:47:26.747Z,45.94
2018-10-05T20:57:30.978Z,46.55
2018-10-05T21:07:34.154Z,46.32
2018-10-05T21:17:37.533Z,46.44
2018-10-05T21:27:42.780Z,46.51
2018-10-05T21:37:45.992Z,46.51
2018-10-05T21:47:49.712Z,46.93
2018-10-05T21:57:53.536Z,46.88
2018-10-05T22:07:57.560Z,46.90
2018-10-05T22:18:01.034Z,47.42
2018-10-05T22:28:04.256Z,46.66
2018-10-05T22:38:07.851Z,46.84
2018-10-05T22:48:11.212Z,47.06
2018-10-05T22:58:14.299Z,46.73
2018-10-05T23:08:18.389Z,47.23
2018-10-05T23:18:21.583Z,46.93
2018-10-05T23:28:25.110Z,47.42
2018-10-05T23:38:29.615Z,47.42
2018-10-05T23:48:33.040Z,47.14
2018-10-05T23:58:37.164Z,47.22
